Sevierville, TN

3:38 AM EST on November 27, 2014 (GMT -0500)
UT Field Station | Change Station
CLOSE
Current Station
Personal Weather Station
Location: Gatlinburg, TN
Elevation: 1586 ft
Nearby Weather Stations

Elev 1586 ft 35.74 °N, 83.42 °W | Updated 58 seconds ago

Overcast
Overcast
35.8 °F
Feels Like 36 °F
N
0.0
Wind Variable Wind from WSW
Gusts 0.0 mph

Today
High -- | Low -- °F
--% Chance of Precip.
Yesterday
High -- | Low -- °F
Precip. -- in
7:21 AM 5:21 PM
Waxing Crescent, 27% visible
Pressure 30.04 in
Visibility 10.0 miles
Clouds Mostly Cloudy 2800 ft
Overcast 3600 ft
Windchill 36 °F
Dew Point 35 °F
Humidity 96%
Rainfall 0.09 in
Snow Depth Not available.
UV 0 out of 12
Pollen .10 out of 12
Air Quality Not available.
Flu Activity Not available.
SPECI KTYS 270826Z 25009KT 10SM BKN028 OVC036 04/02 A3004 RMK AO2 T00440022

More Conditions Fewer Conditions

Pressure 30.04 in
Visibility 10.0 miles
Clouds Mostly Cloudy 2800 ft
Overcast 3600 ft
Windchill 36 °F
Dew Point 35 °F
Humidity 96%
Rainfall 0.09 in
Snow Depth Not available.
UV 0 out of 12
Pollen .10 out of 12
Air Quality Not available.
Flu Activity Not available.
SPECI KTYS 270826Z 25009KT 10SM BKN028 OVC036 04/02 A3004 RMK AO2 T00440022

More Conditions Fewer Conditions

10-Day Weather Forecast

Almanac

Astronomy

Nov. 27, 2014 Rise Set
Actual Time
Civil Twilight
Nautical Twilight
Astronomical Twilight
Moon
Length of Visible Light
Length of Day
Tomorrow will be .
, % of the Moon is Illuminated

Today's Extremes

State Highs State Lows

Community

WunderPhotos

Upload Photos

1,773,965 photos uploaded!

WunderBlogs® & News

Nearby

Air Quality

  Air Quality AQ Index Pollutant
Not available.

Snow Depth

Station Depth Elevation

Earthquake Activity

City Distance Mag. Time & Date
Minimum magnitude displayed is 2.5.

Coastal Water Temperatures

Place Temperature

Nearby Weather Stations